首页
METAR-TAF:

METAR-TAF

机场 :

Hurlburt Field

Mary Esther, 佛罗里达州, 美国

纬度: 30-25N, 经度: 086-41W, 海拔: 12米

当前天气观测

该预报发布于43分钟前的11:55 UTC
风速11节,风向东转东北
温度 27°C
湿度 70%
气压 1016 hPa
能見度: 16.1公里
散云层高于2300英尺
多云层高于3000英尺
阴天层高于4200英尺

METAR: KHRT 191155Z AUTO 07011KT 10SM SCT023 BKN030 OVC042 27/21 A3001 RMK AO2 SLP160 T02650208 10282 20264 53014 $

时间: 07:38 (12:38 UTC)

预报

该预报发布于10小时和38分钟前的02:00 UTC
预报有效从19日的 02点(UTC)到 20日的 08点(UTC)
风速9节,风向东南
能见度10公里或以上
少量云层高于5000英尺
多云层高于20000英尺
成为
从 19日的 05点(UTC)到 19日的 06点(UTC)
风速10节,风向,有时为20节阵风
能见度10公里或以上
多云层高于5000英尺
多云层高于20000英尺
短暂存在
从 19日的 11点(UTC)到 19日的 14点(UTC)
风速15节,风向南转南东,有时为25节阵风
多云层高于2500英尺
阴天层高于20000英尺
附近有阵雨
成为
从 19日的 22点(UTC)到 19日的 23点(UTC)
风速9节,风向东转东北
能见度10公里或以上
多云层高于4000英尺
多云层高于20000英尺
成为
从 20日的 04点(UTC)到 20日的 05点(UTC)
风速10节,风向东转东北,有时为20节阵风
能见度10公里或以上
散云层高于3500英尺
散云层高于20000英尺
附近有阵雨,

TAF: KHRT 190200Z 1902/2008 13009KT 9999 FEW050 BKN200 QNH2996INS BECMG 1905/1906 08010G20KT 9999 BKN050 BKN200 QNH2996INS TEMPO 1911/1914 15015G25KT VCSH BKN025 OVC200 BECMG 1922/1923 07009KT 9999 NSW BKN040 BKN200 QNH3001INS BECMG 2004/2005 07010G20KT 9999 VCSH SCT035 SCT200 QNH3006INS TX32/1919Z TN25/1912Z

超过4000个机场的气象观测和天气预报(METAR&TAF报告)。

可查询的气象台以黄色和红色小点在地图上表示。

将鼠标移到小点上方,可查看气象台名称。

然后点击查看天气观测和预报。

如需切换地图:点击带黑十字的绿色按钮放大地图;点击带横线的绿色按钮缩小地图;或者点击绿色箭头查看邻近地区的地图。


METAR-TAF: